createdAt,value
2023-02-04T00:00:20.250Z,11.58
2023-02-04T00:02:50.400Z,11.60
2023-02-04T00:05:20.062Z,11.62
2023-02-04T00:07:48.689Z,11.64
2023-02-04T00:10:19.010Z,11.65
2023-02-04T00:12:47.380Z,11.67
2023-02-04T00:15:15.840Z,11.68
2023-02-04T00:17:44.284Z,11.71
2023-02-04T00:20:14.667Z,11.72
2023-02-04T00:22:43.208Z,11.73
2023-02-04T00:25:11.674Z,11.73
2023-02-04T00:27:40.383Z,11.75
2023-02-04T00:30:11.428Z,11.74
2023-02-04T00:32:39.833Z,11.74
2023-02-04T00:35:09.453Z,11.75
2023-02-04T00:37:39.377Z,11.77
2023-02-04T00:40:09.477Z,11.79
2023-02-04T00:42:37.854Z,11.80
2023-02-04T00:45:07.048Z,11.81
2023-02-04T00:47:35.857Z,11.81
2023-02-04T00:50:04.306Z,11.83
2023-02-04T00:52:33.177Z,11.86
2023-02-04T00:55:03.024Z,11.88
2023-02-04T00:57:31.445Z,11.89
2023-02-04T00:59:59.825Z,11.90
2023-02-04T01:02:28.326Z,11.91
2023-02-04T01:04:56.794Z,11.92
2023-02-04T01:07:25.287Z,11.96
2023-02-04T01:09:53.699Z,11.97
2023-02-04T01:12:26.076Z,12.00
2023-02-04T01:14:54.771Z,12.01
2023-02-04T01:17:23.293Z,12.03
2023-02-04T01:19:51.740Z,12.02
2023-02-04T01:22:20.165Z,12.05
2023-02-04T01:24:49.050Z,12.07
2023-02-04T01:27:17.417Z,12.08
2023-02-04T01:29:47.256Z,12.08
2023-02-04T01:32:15.669Z,12.08
2023-02-04T01:34:44.132Z,12.06
2023-02-04T01:37:12.528Z,12.02
2023-02-04T01:39:40.918Z,11.99
2023-02-04T01:42:09.559Z,11.95
2023-02-04T01:44:38.137Z,11.93
2023-02-04T01:47:08.363Z,11.91
2023-02-04T01:49:36.919Z,11.89
2023-02-04T01:52:05.999Z,11.83
2023-02-04T01:54:34.487Z,11.78
2023-02-04T01:57:03.224Z,11.73
2023-02-04T01:59:31.695Z,11.69
2023-02-04T02:02:00.168Z,11.66
2023-02-04T02:04:33.340Z,11.63
2023-02-04T02:07:06.442Z,11.61
2023-02-04T02:09:36.022Z,11.60
2023-02-04T02:12:05.272Z,11.61
2023-02-04T02:14:33.774Z,11.63
2023-02-04T02:17:02.306Z,11.67
2023-02-04T02:19:39.241Z,11.69
2023-02-04T02:22:17.416Z,11.72
2023-02-04T02:24:47.164Z,11.75
2023-02-04T02:27:15.593Z,11.78
2023-02-04T02:29:44.723Z,11.81
2023-02-04T02:32:15.897Z,11.81
2023-02-04T02:34:47.351Z,11.83
2023-02-04T02:37:15.842Z,11.87
2023-02-04T02:39:47.333Z,11.87
2023-02-04T02:42:18.798Z,11.89
2023-02-04T02:44:49.568Z,11.90
2023-02-04T02:47:21.748Z,11.92
2023-02-04T02:49:52.489Z,11.94
2023-02-04T02:52:23.011Z,12.00
2023-02-04T02:54:53.959Z,12.02
2023-02-04T02:57:24.747Z,12.03
2023-02-04T02:59:53.209Z,12.05
2023-02-04T03:02:24.805Z,12.06
2023-02-04T03:05:00.924Z,12.03
2023-02-04T03:07:29.405Z,12.06
2023-02-04T03:09:59.279Z,12.06
2023-02-04T03:12:27.868Z,12.06
2023-02-04T03:14:56.427Z,12.03
2023-02-04T03:17:24.877Z,11.99
2023-02-04T03:19:53.511Z,11.98
2023-02-04T03:22:22.104Z,11.97
2023-02-04T03:24:50.580Z,11.90
2023-02-04T03:27:20.889Z,11.84
2023-02-04T03:29:49.260Z,11.82
2023-02-04T03:32:17.922Z,11.79
2023-02-04T03:34:46.287Z,11.78
2023-02-04T03:37:14.719Z,11.77
2023-02-04T03:39:43.143Z,11.78
2023-02-04T03:42:11.546Z,11.77
2023-02-04T03:44:41.323Z,11.79
2023-02-04T03:47:09.675Z,11.81
2023-02-04T03:49:38.088Z,11.83
2023-02-04T03:52:07.345Z,11.84
2023-02-04T03:54:35.781Z,11.84
2023-02-04T03:57:04.262Z,11.83
2023-02-04T03:59:32.677Z,11.78
2023-02-04T04:02:02.549Z,11.63
2023-02-04T04:04:30.989Z,11.49
2023-02-04T04:06:59.806Z,11.29
2023-02-04T04:09:28.205Z,11.13
2023-02-04T04:11:56.594Z,10.93
2023-02-04T04:14:25.124Z,10.75
2023-02-04T04:16:53.507Z,10.57
2023-02-04T04:19:25.008Z,10.17
2023-02-04T04:21:53.310Z,9.75
2023-02-04T04:24:21.729Z,9.41
2023-02-04T04:26:50.101Z,9.16
2023-02-04T04:29:18.470Z,9.04
2023-02-04T04:31:46.927Z,8.96
2023-02-04T04:34:15.332Z,8.92
2023-02-04T04:36:45.120Z,8.91
2023-02-04T04:39:13.616Z,8.93
2023-02-04T04:41:42.003Z,8.92
2023-02-04T04:44:10.423Z,8.84
2023-02-04T04:46:40.686Z,8.76
2023-02-04T04:49:09.082Z,8.69
2023-02-04T04:51:37.510Z,8.68
2023-02-04T04:54:07.932Z,8.64
2023-02-04T04:56:36.432Z,8.61
2023-02-04T04:59:04.915Z,8.60
2023-02-04T05:01:33.985Z,8.61
2023-02-04T05:04:03.957Z,8.61
2023-02-04T05:06:32.367Z,8.60
2023-02-04T05:09:00.739Z,8.58
2023-02-04T05:11:31.046Z,8.57
2023-02-04T05:13:59.462Z,8.56
2023-02-04T05:16:27.935Z,8.53
2023-02-04T05:18:56.367Z,8.49
2023-02-04T05:21:24.952Z,8.46
2023-02-04T05:23:53.374Z,8.43
2023-02-04T05:26:29.886Z,8.41
2023-02-04T05:29:01.486Z,8.36
2023-02-04T05:31:29.923Z,8.35
2023-02-04T05:33:58.528Z,8.31
2023-02-04T05:36:27.077Z,8.31
2023-02-04T05:38:55.482Z,8.32
2023-02-04T05:41:23.912Z,8.33
2023-02-04T05:43:52.250Z,8.32
2023-02-04T05:46:22.071Z,8.33
2023-02-04T05:48:50.568Z,8.33
2023-02-04T05:51:19.009Z,8.32
2023-02-04T05:53:47.336Z,8.33
2023-02-04T05:56:15.934Z,8.34
2023-02-04T05:58:44.331Z,8.35
2023-02-04T06:01:12.734Z,8.39
2023-02-04T06:03:42.496Z,8.40
2023-02-04T06:06:10.938Z,8.40
2023-02-04T06:08:39.414Z,8.42
2023-02-04T06:11:08.126Z,8.42
2023-02-04T06:13:36.521Z,8.44
2023-02-04T06:16:06.504Z,8.45
2023-02-04T06:18:34.894Z,8.48
2023-02-04T06:21:04.827Z,8.51
2023-02-04T06:23:34.718Z,8.52
2023-02-04T06:26:03.424Z,8.52
2023-02-04T06:28:31.896Z,8.52
2023-02-04T06:31:00.432Z,8.52
2023-02-04T06:33:28.905Z,8.52
2023-02-04T06:35:57.371Z,8.54
2023-02-04T06:38:27.151Z,8.55
2023-02-04T06:40:55.505Z,8.57
2023-02-04T06:43:25.567Z,8.55
2023-02-04T06:45:53.963Z,8.56
2023-02-04T06:48:22.433Z,8.58
2023-02-04T06:50:50.835Z,8.61
2023-02-04T06:53:19.251Z,8.59
2023-02-04T06:55:49.012Z,8.55
2023-02-04T06:58:17.438Z,8.52
2023-02-04T07:00:45.876Z,8.49
2023-02-04T07:03:14.283Z,8.46
2023-02-04T07:05:42.700Z,8.41
2023-02-04T07:08:11.123Z,8.38
2023-02-04T07:10:39.496Z,8.35
2023-02-04T07:13:09.322Z,8.32
2023-02-04T07:15:37.822Z,8.29
2023-02-04T07:18:06.200Z,8.27
2023-02-04T07:20:34.980Z,8.22
2023-02-04T07:23:03.541Z,8.17
2023-02-04T07:25:31.902Z,8.15
2023-02-04T07:28:01.981Z,8.11
2023-02-04T07:30:32.294Z,8.02
2023-02-04T07:33:00.881Z,7.96
2023-02-04T07:35:29.247Z,7.90
2023-02-04T07:37:57.607Z,7.89
2023-02-04T07:40:26.005Z,7.89
2023-02-04T07:42:54.446Z,7.88
2023-02-04T07:45:22.926Z,7.82
2023-02-04T07:47:52.712Z,7.80
2023-02-04T07:50:21.266Z,7.77
2023-02-04T07:52:49.711Z,7.80
2023-02-04T07:55:18.369Z,7.81
2023-02-04T07:57:46.780Z,7.78
2023-02-04T08:00:16.564Z,7.71
2023-02-04T08:02:45.045Z,7.70
2023-02-04T08:05:14.960Z,7.67
2023-02-04T08:07:43.399Z,7.66
2023-02-04T08:10:13.547Z,7.64
2023-02-04T08:12:41.964Z,7.59
2023-02-04T08:15:11.224Z,7.58
2023-02-04T08:17:39.641Z,7.56
2023-02-04T08:20:09.714Z,7.56
2023-02-04T08:22:40.016Z,7.60
2023-02-04T08:25:10.206Z,7.66
2023-02-04T08:27:38.619Z,7.70
2023-02-04T08:30:08.876Z,7.77
2023-02-04T08:32:37.677Z,7.88
2023-02-04T08:35:06.789Z,7.97
2023-02-04T08:37:35.511Z,8.05
2023-02-04T08:40:06.635Z,8.13
2023-02-04T08:42:35.721Z,8.22
2023-02-04T08:45:04.889Z,8.29
2023-02-04T08:47:33.349Z,8.29
2023-02-04T08:50:01.797Z,8.24
2023-02-04T08:52:30.246Z,8.20
2023-02-04T08:54:58.669Z,8.15
2023-02-04T08:57:28.463Z,8.11
2023-02-04T08:59:56.829Z,8.09
2023-02-04T09:02:25.328Z,8.11
2023-02-04T09:04:53.819Z,8.16
2023-02-04T09:07:22.541Z,8.21
2023-02-04T09:09:50.922Z,8.26
2023-02-04T09:12:19.334Z,8.30
2023-02-04T09:14:49.288Z,8.30
2023-02-04T09:17:17.897Z,8.28
2023-02-04T09:19:46.300Z,8.25
2023-02-04T09:22:15.355Z,8.26
2023-02-04T09:24:43.749Z,8.29
2023-02-04T09:27:12.138Z,8.33
2023-02-04T09:29:40.564Z,8.36
2023-02-04T09:32:10.420Z,8.36
2023-02-04T09:34:38.867Z,8.29
2023-02-04T09:37:07.327Z,8.23
2023-02-04T09:39:35.753Z,8.19
2023-02-04T09:42:04.300Z,8.16
2023-02-04T09:44:32.768Z,8.15
2023-02-04T09:47:02.437Z,8.12
2023-02-04T09:49:33.288Z,8.11
2023-02-04T09:52:01.849Z,8.13
2023-02-04T09:54:30.326Z,8.16
2023-02-04T09:56:59.484Z,8.20
2023-02-04T09:59:29.804Z,8.23
2023-02-04T10:02:03.222Z,8.23
2023-02-04T10:04:33.020Z,8.24
2023-02-04T10:07:01.520Z,8.32
2023-02-04T10:09:29.919Z,8.33
2023-02-04T10:11:58.414Z,8.35
2023-02-04T10:14:26.852Z,8.38
2023-02-04T10:16:59.522Z,8.41
2023-02-04T10:19:30.239Z,8.42
2023-02-04T10:22:00.618Z,8.47
2023-02-04T10:24:30.730Z,8.48
2023-02-04T10:27:09.708Z,8.50
2023-02-04T10:29:38.559Z,8.60
2023-02-04T10:32:07.667Z,8.66
2023-02-04T10:34:39.957Z,8.70
2023-02-04T10:37:22.647Z,8.76
2023-02-04T10:39:51.521Z,8.78
2023-02-04T10:42:25.283Z,8.81
2023-02-04T10:44:54.726Z,8.83
2023-02-04T10:47:25.728Z,8.80
2023-02-04T10:49:56.505Z,8.76
2023-02-04T10:52:37.357Z,8.77
2023-02-04T10:55:07.609Z,8.89
2023-02-04T10:57:40.400Z,9.11
2023-02-04T11:00:19.154Z,9.41
2023-02-04T11:02:56.080Z,9.53
2023-02-04T11:05:30.313Z,9.48
2023-02-04T11:08:00.728Z,9.44
2023-02-04T11:10:33.217Z,9.30
2023-02-04T11:13:05.295Z,9.16
2023-02-04T11:15:48.511Z,9.02
2023-02-04T11:18:31.200Z,8.92
2023-02-04T11:21:01.286Z,8.80
2023-02-04T11:23:38.308Z,8.71
2023-02-04T11:26:17.311Z,8.69
2023-02-04T11:28:56.162Z,8.80
2023-02-04T11:31:47.100Z,9.04
2023-02-04T11:34:46.797Z,9.42
2023-02-04T11:37:36.098Z,9.83
2023-02-04T11:40:22.138Z,10.21
2023-02-04T11:42:51.007Z,10.55
2023-02-04T11:45:26.538Z,10.83
2023-02-04T11:47:57.785Z,10.77
2023-02-04T11:50:30.609Z,10.79
2023-02-04T11:53:01.947Z,10.69
2023-02-04T11:55:33.673Z,10.45
2023-02-04T11:58:02.523Z,10.23
2023-02-04T12:00:33.636Z,10.04
2023-02-04T12:03:06.340Z,9.85
2023-02-04T12:05:42.620Z,9.74
2023-02-04T12:08:13.591Z,9.67
2023-02-04T12:10:51.140Z,9.58
2023-02-04T12:13:24.222Z,9.53
2023-02-04T12:16:02.482Z,9.46
2023-02-04T12:18:31.668Z,9.41
2023-02-04T12:21:01.556Z,9.42
2023-02-04T12:23:31.527Z,9.47
2023-02-04T12:26:01.420Z,9.58
2023-02-04T12:28:30.248Z,9.68
2023-02-04T12:30:58.789Z,9.75
2023-02-04T12:33:27.317Z,9.80
2023-02-04T12:35:55.725Z,9.81
2023-02-04T12:38:24.166Z,9.73
2023-02-04T12:40:52.600Z,9.59
2023-02-04T12:43:22.354Z,9.47
2023-02-04T12:45:50.761Z,9.33
2023-02-04T12:48:19.238Z,9.48
2023-02-04T12:50:47.837Z,10.03
2023-02-04T12:53:16.506Z,10.64
2023-02-04T12:55:45.032Z,11.15
2023-02-04T12:58:13.446Z,11.69
2023-02-04T13:00:43.463Z,12.23
2023-02-04T13:03:11.866Z,12.47
2023-02-04T13:05:40.358Z,12.35
2023-02-04T13:08:08.948Z,12.09
2023-02-04T13:10:37.382Z,11.66
2023-02-04T13:13:05.765Z,11.32
2023-02-04T13:15:34.351Z,10.98
2023-02-04T13:18:04.495Z,10.63
2023-02-04T13:20:32.895Z,10.29
2023-02-04T13:23:01.343Z,10.04
2023-02-04T13:25:30.069Z,9.83
2023-02-04T13:27:58.567Z,9.66
2023-02-04T13:30:27.056Z,9.54
2023-02-04T13:32:55.553Z,9.46
2023-02-04T13:35:25.558Z,9.40
2023-02-04T13:37:56.253Z,9.35
2023-02-04T13:40:24.854Z,9.35
2023-02-04T13:42:53.273Z,9.34
2023-02-04T13:45:21.911Z,9.32
2023-02-04T13:47:50.377Z,9.33
2023-02-04T13:50:19.111Z,9.30
2023-02-04T13:52:49.058Z,9.27
2023-02-04T13:55:17.756Z,9.19
2023-02-04T13:57:46.195Z,9.13
2023-02-04T14:00:16.203Z,9.06
2023-02-04T14:02:44.635Z,8.99
2023-02-04T14:05:13.296Z,8.96
2023-02-04T14:07:41.756Z,8.94
2023-02-04T14:10:12.205Z,8.89
2023-02-04T14:12:41.960Z,8.84
2023-02-04T14:15:12.089Z,8.81
2023-02-04T14:17:40.753Z,8.81
2023-02-04T14:20:10.864Z,8.74
2023-02-04T14:22:39.262Z,8.69
2023-02-04T14:25:10.458Z,8.64
2023-02-04T14:27:42.194Z,8.58
2023-02-04T14:30:18.907Z,8.49
2023-02-04T14:32:47.560Z,8.47
2023-02-04T14:35:17.273Z,8.45
2023-02-04T14:37:46.005Z,8.46
2023-02-04T14:40:18.179Z,8.43
2023-02-04T14:42:46.936Z,8.42
2023-02-04T14:45:17.016Z,8.42
2023-02-04T14:47:45.680Z,8.41
2023-02-04T14:50:18.334Z,8.38
2023-02-04T14:52:46.902Z,8.37
2023-02-04T14:55:17.050Z,8.35
2023-02-04T14:57:45.826Z,8.31
2023-02-04T15:00:16.405Z,8.27
2023-02-04T15:02:45.774Z,8.24
2023-02-04T15:05:15.296Z,8.23
2023-02-04T15:07:43.818Z,8.19
2023-02-04T15:10:15.350Z,8.16
2023-02-04T15:12:45.253Z,8.12
2023-02-04T15:15:13.882Z,8.11
2023-02-04T15:17:42.754Z,8.09
2023-02-04T15:20:12.595Z,8.04
2023-02-04T15:22:41.061Z,8.01
2023-02-04T15:25:11.435Z,7.92
2023-02-04T15:27:40.247Z,7.85
2023-02-04T15:30:12.077Z,7.77
2023-02-04T15:32:42.968Z,7.70
2023-02-04T15:35:11.829Z,7.66
2023-02-04T15:37:40.580Z,7.62
2023-02-04T15:40:10.987Z,7.58
2023-02-04T15:42:39.511Z,7.54
2023-02-04T15:45:10.470Z,7.52
2023-02-04T15:47:39.277Z,7.51
2023-02-04T15:50:10.997Z,7.50
2023-02-04T15:52:39.604Z,7.49
2023-02-04T15:55:09.338Z,7.45
2023-02-04T15:57:39.759Z,7.38
2023-02-04T16:00:11.988Z,7.33
2023-02-04T16:02:40.760Z,7.28
2023-02-04T16:05:10.091Z,7.23
2023-02-04T16:07:38.985Z,7.17
2023-02-04T16:10:08.229Z,7.12
2023-02-04T16:12:37.276Z,7.07
2023-02-04T16:15:06.830Z,7.04
2023-02-04T16:17:36.931Z,7.01
2023-02-04T16:20:05.804Z,6.99
2023-02-04T16:22:34.686Z,6.95
2023-02-04T16:25:03.806Z,6.92
2023-02-04T16:27:33.781Z,6.90
2023-02-04T16:30:03.812Z,6.87
2023-02-04T16:32:33.962Z,6.84
2023-02-04T16:35:05.623Z,6.81
2023-02-04T16:37:34.259Z,6.79
2023-02-04T16:40:03.028Z,6.75
2023-02-04T16:42:32.541Z,6.78
2023-02-04T16:45:01.354Z,6.79
2023-02-04T16:47:30.152Z,6.81
2023-02-04T16:50:01.061Z,6.81
2023-02-04T16:52:32.834Z,6.82
2023-02-04T16:55:01.887Z,6.83
2023-02-04T16:57:30.617Z,6.85
2023-02-04T16:59:59.258Z,6.89
2023-02-04T17:02:27.986Z,6.95
2023-02-04T17:04:56.438Z,6.97
2023-02-04T17:07:25.521Z,7.01
2023-02-04T17:09:55.802Z,7.03
2023-02-04T17:12:25.126Z,7.05
2023-02-04T17:14:54.483Z,7.07
2023-02-04T17:17:23.318Z,7.11
2023-02-04T17:19:51.790Z,7.12
2023-02-04T17:22:20.595Z,7.14
2023-02-04T17:24:49.038Z,7.17
2023-02-04T17:27:19.568Z,7.20
2023-02-04T17:29:48.134Z,7.23
2023-02-04T17:32:16.888Z,7.25
2023-02-04T17:34:45.744Z,7.29
2023-02-04T17:37:14.502Z,7.29
2023-02-04T17:39:44.141Z,7.30
2023-02-04T17:42:13.621Z,7.30
2023-02-04T17:44:44.829Z,7.28
2023-02-04T17:47:14.380Z,7.27
2023-02-04T17:49:43.735Z,7.25
2023-02-04T17:52:12.897Z,7.26
2023-02-04T17:54:42.537Z,7.25
2023-02-04T17:57:20.424Z,7.21
2023-02-04T17:59:52.981Z,7.19
2023-02-04T18:02:28.225Z,7.15
2023-02-04T18:05:02.067Z,7.13
2023-02-04T18:07:30.582Z,7.12
2023-02-04T18:10:19.601Z,7.08
2023-02-04T18:12:49.022Z,7.12
2023-02-04T18:15:34.650Z,7.11
2023-02-04T18:18:19.902Z,7.09
2023-02-04T18:20:52.462Z,7.07
2023-02-04T18:23:21.484Z,7.08
2023-02-04T18:25:51.427Z,7.06
2023-02-04T18:28:23.320Z,7.08
2023-02-04T18:31:00.473Z,7.07
2023-02-04T18:33:31.905Z,7.10
2023-02-04T18:36:02.875Z,7.12
2023-02-04T18:38:39.262Z,7.13
2023-02-04T18:41:31.499Z,7.14
2023-02-04T18:44:17.704Z,7.17
2023-02-04T18:46:48.949Z,7.18
2023-02-04T18:49:28.865Z,7.17
2023-02-04T18:52:00.592Z,7.18
2023-02-04T18:54:36.724Z,7.18
2023-02-04T18:57:29.285Z,7.17
2023-02-04T19:00:26.332Z,7.13
2023-02-04T19:03:00.125Z,7.12
2023-02-04T19:05:35.429Z,7.12
2023-02-04T19:08:28.969Z,7.10
2023-02-04T19:11:01.774Z,7.07
2023-02-04T19:13:41.608Z,7.11
2023-02-04T19:16:28.496Z,7.07
2023-02-04T19:19:03.105Z,7.09
2023-02-04T19:21:35.377Z,7.12
2023-02-04T19:24:27.938Z,7.12
2023-02-04T19:27:00.340Z,7.11
2023-02-04T19:29:43.839Z,7.10
2023-02-04T19:32:29.474Z,7.14
2023-02-04T19:35:18.013Z,7.15
2023-02-04T19:37:54.008Z,7.19
2023-02-04T19:40:35.057Z,7.20
2023-02-04T19:43:20.523Z,7.23
2023-02-04T19:45:51.363Z,7.26
2023-02-04T19:48:28.525Z,7.30
2023-02-04T19:50:59.048Z,7.32
2023-02-04T19:53:31.164Z,7.33
2023-02-04T19:56:00.535Z,7.34
2023-02-04T19:58:38.277Z,7.33
2023-02-04T20:01:12.528Z,7.31
2023-02-04T20:03:47.525Z,7.30
2023-02-04T20:06:31.870Z,7.28
2023-02-04T20:09:08.234Z,7.26
2023-02-04T20:11:54.369Z,7.24
2023-02-04T20:14:49.414Z,7.22
2023-02-04T20:17:46.030Z,7.21
2023-02-04T20:20:23.218Z,7.21
2023-02-04T20:22:57.222Z,7.22
2023-02-04T20:25:42.624Z,7.22
2023-02-04T20:28:42.893Z,7.22
2023-02-04T20:31:29.458Z,7.21
2023-02-04T20:34:01.498Z,7.22
2023-02-04T20:36:39.044Z,7.23
2023-02-04T20:39:42.045Z,7.23
2023-02-04T20:42:36.505Z,7.23
2023-02-04T20:45:25.893Z,7.28
2023-02-04T20:48:00.845Z,7.32
2023-02-04T20:50:41.276Z,7.32
2023-02-04T20:53:26.498Z,7.25
2023-02-04T20:56:03.932Z,7.15
2023-02-04T20:58:38.963Z,6.95
2023-02-04T21:01:24.282Z,6.77
2023-02-04T21:03:52.982Z,6.61
2023-02-04T21:06:28.577Z,6.45
2023-02-04T21:08:59.295Z,6.29
2023-02-04T21:11:30.831Z,6.17
2023-02-04T21:13:59.786Z,6.07
2023-02-04T21:16:29.315Z,5.99
2023-02-04T21:18:58.611Z,5.93
2023-02-04T21:21:29.025Z,5.86
2023-02-04T21:23:58.447Z,5.80
2023-02-04T21:26:29.104Z,5.73
2023-02-04T21:28:58.315Z,5.65
2023-02-04T21:31:27.921Z,5.62
2023-02-04T21:33:57.549Z,5.58
2023-02-04T21:36:27.894Z,5.57
2023-02-04T21:38:56.730Z,5.55
2023-02-04T21:41:25.858Z,5.56
2023-02-04T21:43:56.312Z,5.55
2023-02-04T21:46:25.210Z,5.55
2023-02-04T21:48:54.075Z,5.56
2023-02-04T21:51:22.798Z,5.56
2023-02-04T21:53:51.845Z,5.57
2023-02-04T21:56:20.370Z,5.59
2023-02-04T21:58:49.043Z,5.60
2023-02-04T22:01:19.182Z,5.59
2023-02-04T22:03:47.732Z,5.62
2023-02-04T22:06:16.194Z,5.66
2023-02-04T22:08:44.650Z,5.68
2023-02-04T22:11:13.087Z,5.71
2023-02-04T22:14:00.206Z,5.72
2023-02-04T22:16:30.162Z,5.70
2023-02-04T22:18:58.591Z,5.72
2023-02-04T22:21:27.045Z,5.72
2023-02-04T22:23:55.470Z,5.73
2023-02-04T22:26:23.931Z,5.72
2023-02-04T22:28:52.350Z,5.71
2023-02-04T22:31:20.830Z,5.67
2023-02-04T22:33:50.676Z,5.61
2023-02-04T22:36:19.138Z,5.57
2023-02-04T22:38:47.604Z,5.53
2023-02-04T22:41:16.048Z,5.50
2023-02-04T22:43:44.496Z,5.47
2023-02-04T22:46:13.088Z,5.45
2023-02-04T22:48:41.699Z,5.42
2023-02-04T22:51:11.673Z,5.39
2023-02-04T22:53:40.201Z,5.34
2023-02-04T22:56:08.961Z,5.32
2023-02-04T22:58:37.393Z,5.29
2023-02-04T23:01:06.252Z,5.24
2023-02-04T23:03:35.116Z,5.19
2023-02-04T23:06:03.632Z,5.12
2023-02-04T23:08:33.551Z,5.09
2023-02-04T23:11:02.134Z,5.06
2023-02-04T23:13:30.648Z,5.01
2023-02-04T23:15:59.247Z,4.97
2023-02-04T23:18:27.753Z,4.93
2023-02-04T23:20:56.206Z,4.90
2023-02-04T23:23:25.001Z,4.86
2023-02-04T23:25:54.894Z,4.84
2023-02-04T23:28:23.372Z,4.86
2023-02-04T23:30:51.842Z,4.89
2023-02-04T23:33:20.337Z,4.92
2023-02-04T23:35:48.923Z,4.96
2023-02-04T23:38:17.679Z,5.00
2023-02-04T23:40:46.156Z,5.00
2023-02-04T23:43:16.311Z,5.00
2023-02-04T23:45:45.771Z,5.00
2023-02-04T23:48:14.266Z,5.01
2023-02-04T23:50:42.719Z,5.00
2023-02-04T23:53:11.181Z,5.02
2023-02-04T23:55:39.849Z,5.02
2023-02-04T23:58:08.349Z,5.04
